sensor_id;sensor_type;location;lat;lon;timestamp;temperature;humidity
5621;DHT22;2832;50.864;12.186;2023-04-15T00:02:20;12.30;99.90
5621;DHT22;2832;50.864;12.186;2023-04-15T00:04:49;12.30;99.90
5621;DHT22;2832;50.864;12.186;2023-04-15T00:07:29;12.30;99.90
5621;DHT22;2832;50.864;12.186;2023-04-15T00:09:59;12.30;99.90
5621;DHT22;2832;50.864;12.186;2023-04-15T00:12:27;12.30;99.90
5621;DHT22;2832;50.864;12.186;2023-04-15T00:14:56;12.30;99.90
5621;DHT22;2832;50.864;12.186;2023-04-15T00:17:25;12.30;99.90
5621;DHT22;2832;50.864;12.186;2023-04-15T00:19:56;12.30;99.90
5621;DHT22;2832;50.864;12.186;2023-04-15T00:22:26;12.30;99.90
5621;DHT22;2832;50.864;12.186;2023-04-15T00:24:55;12.30;99.90
5621;DHT22;2832;50.864;12.186;2023-04-15T00:27:23;12.30;99.90
5621;DHT22;2832;50.864;12.186;2023-04-15T00:29:52;12.30;99.90
5621;DHT22;2832;50.864;12.186;2023-04-15T00:32:19;12.30;99.90
5621;DHT22;2832;50.864;12.186;2023-04-15T00:34:47;12.30;99.90
5621;DHT22;2832;50.864;12.186;2023-04-15T00:37:15;12.30;99.90
5621;DHT22;2832;50.864;12.186;2023-04-15T00:39:46;12.30;99.90
5621;DHT22;2832;50.864;12.186;2023-04-15T00:42:19;12.30;99.90
5621;DHT22;2832;50.864;12.186;2023-04-15T00:44:52;12.30;99.90
5621;DHT22;2832;50.864;12.186;2023-04-15T00:47:22;12.30;99.90
5621;DHT22;2832;50.864;12.186;2023-04-15T00:49:51;12.30;99.90
5621;DHT22;2832;50.864;12.186;2023-04-15T00:52:19;12.30;99.90
5621;DHT22;2832;50.864;12.186;2023-04-15T00:54:49;12.30;99.90
5621;DHT22;2832;50.864;12.186;2023-04-15T00:57:24;12.30;99.90
5621;DHT22;2832;50.864;12.186;2023-04-15T00:59:54;12.30;99.90
5621;DHT22;2832;50.864;12.186;2023-04-15T01:02:23;12.30;99.90
5621;DHT22;2832;50.864;12.186;2023-04-15T01:04:53;12.30;99.90
5621;DHT22;2832;50.864;12.186;2023-04-15T01:07:22;12.30;99.90
5621;DHT22;2832;50.864;12.186;2023-04-15T01:09:51;12.30;99.90
5621;DHT22;2832;50.864;12.186;2023-04-15T01:12:20;12.30;99.90
5621;DHT22;2832;50.864;12.186;2023-04-15T01:14:55;12.30;99.90
5621;DHT22;2832;50.864;12.186;2023-04-15T01:17:32;12.30;99.90
5621;DHT22;2832;50.864;12.186;2023-04-15T01:20:05;12.30;99.90
5621;DHT22;2832;50.864;12.186;2023-04-15T01:22:36;12.30;99.90
5621;DHT22;2832;50.864;12.186;2023-04-15T01:25:10;12.30;99.90
5621;DHT22;2832;50.864;12.186;2023-04-15T01:27:43;12.30;99.90
5621;DHT22;2832;50.864;12.186;2023-04-15T01:30:13;12.30;99.90
5621;DHT22;2832;50.864;12.186;2023-04-15T01:32:43;12.20;99.90
5621;DHT22;2832;50.864;12.186;2023-04-15T01:35:12;12.20;99.90
5621;DHT22;2832;50.864;12.186;2023-04-15T01:37:43;12.10;99.90
5621;DHT22;2832;50.864;12.186;2023-04-15T01:40:13;12.20;99.90
5621;DHT22;2832;50.864;12.186;2023-04-15T01:42:44;12.10;99.90
5621;DHT22;2832;50.864;12.186;2023-04-15T01:45:13;12.20;99.90
5621;DHT22;2832;50.864;12.186;2023-04-15T01:47:43;12.20;99.90
5621;DHT22;2832;50.864;12.186;2023-04-15T01:50:15;12.20;99.90
5621;DHT22;2832;50.864;12.186;2023-04-15T01:52:47;12.20;99.90
5621;DHT22;2832;50.864;12.186;2023-04-15T01:55:17;12.20;99.90
5621;DHT22;2832;50.864;12.186;2023-04-15T01:57:50;12.30;99.90
5621;DHT22;2832;50.864;12.186;2023-04-15T02:00:20;12.30;99.90
5621;DHT22;2832;50.864;12.186;2023-04-15T02:02:49;12.20;99.90
5621;DHT22;2832;50.864;12.186;2023-04-15T02:05:18;12.20;99.90
5621;DHT22;2832;50.864;12.186;2023-04-15T02:07:47;12.20;99.90
5621;DHT22;2832;50.864;12.186;2023-04-15T02:10:16;12.20;99.90
5621;DHT22;2832;50.864;12.186;2023-04-15T02:12:44;12.10;99.90
5621;DHT22;2832;50.864;12.186;2023-04-15T02:15:14;12.10;99.90
5621;DHT22;2832;50.864;12.186;2023-04-15T02:17:42;12.20;99.90
5621;DHT22;2832;50.864;12.186;2023-04-15T02:20:18;12.10;99.90
5621;DHT22;2832;50.864;12.186;2023-04-15T02:22:46;12.20;99.90
5621;DHT22;2832;50.864;12.186;2023-04-15T02:25:15;12.20;99.90
5621;DHT22;2832;50.864;12.186;2023-04-15T02:27:44;12.20;99.90
5621;DHT22;2832;50.864;12.186;2023-04-15T03:32:00;12.00;99.90
5621;DHT22;2832;50.864;12.186;2023-04-15T03:34:28;12.00;99.90
5621;DHT22;2832;50.864;12.186;2023-04-15T03:36:56;12.00;99.90
5621;DHT22;2832;50.864;12.186;2023-04-15T03:39:24;12.00;99.90
5621;DHT22;2832;50.864;12.186;2023-04-15T03:41:53;12.00;99.90
5621;DHT22;2832;50.864;12.186;2023-04-15T03:44:21;12.00;99.90
5621;DHT22;2832;50.864;12.186;2023-04-15T03:46:52;12.10;99.90
5621;DHT22;2832;50.864;12.186;2023-04-15T03:49:22;12.00;99.90
5621;DHT22;2832;50.864;12.186;2023-04-15T03:51:50;12.00;99.90
5621;DHT22;2832;50.864;12.186;2023-04-15T03:54:18;12.00;99.90
5621;DHT22;2832;50.864;12.186;2023-04-15T03:56:46;12.00;99.90
5621;DHT22;2832;50.864;12.186;2023-04-15T03:59:14;12.00;99.90
5621;DHT22;2832;50.864;12.186;2023-04-15T04:01:42;12.00;99.90
5621;DHT22;2832;50.864;12.186;2023-04-15T04:04:10;12.00;99.90
5621;DHT22;2832;50.864;12.186;2023-04-15T04:06:39;12.00;99.90
5621;DHT22;2832;50.864;12.186;2023-04-15T04:09:07;12.00;99.90
5621;DHT22;2832;50.864;12.186;2023-04-15T04:11:35;12.00;99.90
5621;DHT22;2832;50.864;12.186;2023-04-15T04:14:04;12.00;99.90
5621;DHT22;2832;50.864;12.186;2023-04-15T04:16:32;12.00;99.90
5621;DHT22;2832;50.864;12.186;2023-04-15T04:19:00;12.00;99.90
5621;DHT22;2832;50.864;12.186;2023-04-15T04:21:28;11.90;99.90
5621;DHT22;2832;50.864;12.186;2023-04-15T04:24:01;12.00;99.90
5621;DHT22;2832;50.864;12.186;2023-04-15T04:26:29;11.90;99.90
5621;DHT22;2832;50.864;12.186;2023-04-15T04:28:59;12.00;99.90
5621;DHT22;2832;50.864;12.186;2023-04-15T04:31:28;12.00;99.90
5621;DHT22;2832;50.864;12.186;2023-04-15T04:33:56;12.00;99.90
5621;DHT22;2832;50.864;12.186;2023-04-15T04:36:24;12.00;99.90
5621;DHT22;2832;50.864;12.186;2023-04-15T04:38:55;12.00;99.90
5621;DHT22;2832;50.864;12.186;2023-04-15T04:41:25;12.00;99.90
5621;DHT22;2832;50.864;12.186;2023-04-15T04:43:53;12.00;99.90
5621;DHT22;2832;50.864;12.186;2023-04-15T04:46:21;12.00;99.90
5621;DHT22;2832;50.864;12.186;2023-04-15T04:48:49;11.90;99.90
5621;DHT22;2832;50.864;12.186;2023-04-15T04:51:17;11.90;99.90
5621;DHT22;2832;50.864;12.186;2023-04-15T04:53:45;11.90;99.90
5621;DHT22;2832;50.864;12.186;2023-04-15T04:56:12;11.90;99.90
5621;DHT22;2832;50.864;12.186;2023-04-15T04:58:42;12.00;99.90
5621;DHT22;2832;50.864;12.186;2023-04-15T05:01:11;12.00;99.90
5621;DHT22;2832;50.864;12.186;2023-04-15T05:03:38;12.00;99.90
5621;DHT22;2832;50.864;12.186;2023-04-15T05:06:06;11.90;99.90
5621;DHT22;2832;50.864;12.186;2023-04-15T05:08:35;11.90;99.90
5621;DHT22;2832;50.864;12.186;2023-04-15T05:11:03;11.90;99.90
5621;DHT22;2832;50.864;12.186;2023-04-15T05:13:31;11.90;99.90
5621;DHT22;2832;50.864;12.186;2023-04-15T05:16:00;11.90;99.90
5621;DHT22;2832;50.864;12.186;2023-04-15T05:18:29;11.90;99.90
5621;DHT22;2832;50.864;12.186;2023-04-15T05:20:57;11.90;99.90
5621;DHT22;2832;50.864;12.186;2023-04-15T05:23:26;11.80;99.90
5621;DHT22;2832;50.864;12.186;2023-04-15T05:25:54;11.90;99.90
5621;DHT22;2832;50.864;12.186;2023-04-15T05:28:22;11.80;99.90
5621;DHT22;2832;50.864;12.186;2023-04-15T05:30:49;11.80;99.90
5621;DHT22;2832;50.864;12.186;2023-04-15T07:33:56;11.80;99.90
5621;DHT22;2832;50.864;12.186;2023-04-15T07:36:25;11.70;99.90
5621;DHT22;2832;50.864;12.186;2023-04-15T07:38:54;11.70;99.90
5621;DHT22;2832;50.864;12.186;2023-04-15T07:41:23;11.70;99.90
5621;DHT22;2832;50.864;12.186;2023-04-15T07:43:52;11.70;99.90
5621;DHT22;2832;50.864;12.186;2023-04-15T07:46:20;11.70;99.90
5621;DHT22;2832;50.864;12.186;2023-04-15T07:48:49;11.70;99.90
5621;DHT22;2832;50.864;12.186;2023-04-15T07:51:19;11.70;99.90
5621;DHT22;2832;50.864;12.186;2023-04-15T07:53:48;11.60;99.90
5621;DHT22;2832;50.864;12.186;2023-04-15T07:56:17;11.70;99.90
5621;DHT22;2832;50.864;12.186;2023-04-15T07:58:45;11.60;99.90
5621;DHT22;2832;50.864;12.186;2023-04-15T08:01:14;11.60;99.90
5621;DHT22;2832;50.864;12.186;2023-04-15T08:03:45;11.60;99.90
5621;DHT22;2832;50.864;12.186;2023-04-15T08:06:13;11.60;99.90
5621;DHT22;2832;50.864;12.186;2023-04-15T08:08:42;11.60;99.90
5621;DHT22;2832;50.864;12.186;2023-04-15T08:11:10;11.60;99.90
5621;DHT22;2832;50.864;12.186;2023-04-15T08:13:38;11.60;99.90
5621;DHT22;2832;50.864;12.186;2023-04-15T08:16:18;11.70;99.90
5621;DHT22;2832;50.864;12.186;2023-04-15T08:18:47;11.60;99.90
5621;DHT22;2832;50.864;12.186;2023-04-15T08:21:16;11.60;99.90
5621;DHT22;2832;50.864;12.186;2023-04-15T08:23:47;11.60;99.90
5621;DHT22;2832;50.864;12.186;2023-04-15T08:26:16;11.60;99.90
5621;DHT22;2832;50.864;12.186;2023-04-15T08:28:45;11.70;99.90
5621;DHT22;2832;50.864;12.186;2023-04-15T08:31:14;11.60;99.90
5621;DHT22;2832;50.864;12.186;2023-04-15T09:35:37;11.60;99.90
5621;DHT22;2832;50.864;12.186;2023-04-15T09:38:08;11.60;99.90
5621;DHT22;2832;50.864;12.186;2023-04-15T09:40:39;11.60;99.90
5621;DHT22;2832;50.864;12.186;2023-04-15T09:43:08;11.60;99.90
5621;DHT22;2832;50.864;12.186;2023-04-15T09:45:38;11.60;99.90
5621;DHT22;2832;50.864;12.186;2023-04-15T09:48:19;11.60;99.90
5621;DHT22;2832;50.864;12.186;2023-04-15T09:50:57;11.60;99.90
5621;DHT22;2832;50.864;12.186;2023-04-15T09:53:34;11.50;99.90
5621;DHT22;2832;50.864;12.186;2023-04-15T09:56:03;11.50;99.90
5621;DHT22;2832;50.864;12.186;2023-04-15T09:58:36;11.40;99.90
5621;DHT22;2832;50.864;12.186;2023-04-15T10:01:07;11.50;99.90
5621;DHT22;2832;50.864;12.186;2023-04-15T10:03:37;11.50;99.90
5621;DHT22;2832;50.864;12.186;2023-04-15T10:06:09;11.50;99.90
5621;DHT22;2832;50.864;12.186;2023-04-15T10:08:37;11.50;99.90
5621;DHT22;2832;50.864;12.186;2023-04-15T10:11:06;11.50;99.90
5621;DHT22;2832;50.864;12.186;2023-04-15T10:13:35;11.50;99.90
5621;DHT22;2832;50.864;12.186;2023-04-15T10:16:05;11.40;99.90
5621;DHT22;2832;50.864;12.186;2023-04-15T10:19:20;11.40;99.90
5621;DHT22;2832;50.864;12.186;2023-04-15T10:21:55;11.40;99.90
5621;DHT22;2832;50.864;12.186;2023-04-15T10:24:26;11.40;99.90
5621;DHT22;2832;50.864;12.186;2023-04-15T10:26:54;11.40;99.90
5621;DHT22;2832;50.864;12.186;2023-04-15T10:29:24;11.40;99.90
5621;DHT22;2832;50.864;12.186;2023-04-15T10:32:13;11.40;99.90
5621;DHT22;2832;50.864;12.186;2023-04-15T10:34:42;11.40;99.90
5621;DHT22;2832;50.864;12.186;2023-04-15T10:37:11;11.40;99.90
5621;DHT22;2832;50.864;12.186;2023-04-15T10:39:43;11.40;99.90
5621;DHT22;2832;50.864;12.186;2023-04-15T10:42:13;11.40;99.90
5621;DHT22;2832;50.864;12.186;2023-04-15T10:44:57;11.40;99.90
5621;DHT22;2832;50.864;12.186;2023-04-15T10:47:25;11.50;99.90
5621;DHT22;2832;50.864;12.186;2023-04-15T10:49:57;11.40;99.90
5621;DHT22;2832;50.864;12.186;2023-04-15T10:52:27;11.50;99.90
5621;DHT22;2832;50.864;12.186;2023-04-15T10:55:11;11.50;99.90
5621;DHT22;2832;50.864;12.186;2023-04-15T10:57:41;11.40;99.90
5621;DHT22;2832;50.864;12.186;2023-04-15T11:00:13;11.50;99.90
5621;DHT22;2832;50.864;12.186;2023-04-15T11:02:44;11.50;99.90
5621;DHT22;2832;50.864;12.186;2023-04-15T11:05:17;11.50;99.90
5621;DHT22;2832;50.864;12.186;2023-04-15T11:07:55;11.50;99.90
5621;DHT22;2832;50.864;12.186;2023-04-15T11:10:54;11.50;99.90
5621;DHT22;2832;50.864;12.186;2023-04-15T11:13:25;11.40;99.90
5621;DHT22;2832;50.864;12.186;2023-04-15T11:15:58;11.40;99.90
5621;DHT22;2832;50.864;12.186;2023-04-15T11:18:32;11.40;99.90
5621;DHT22;2832;50.864;12.186;2023-04-15T11:21:04;11.50;99.90
5621;DHT22;2832;50.864;12.186;2023-04-15T11:23:37;11.50;99.90
5621;DHT22;2832;50.864;12.186;2023-04-15T11:26:07;11.40;99.90
5621;DHT22;2832;50.864;12.186;2023-04-15T11:28:37;11.40;99.90
5621;DHT22;2832;50.864;12.186;2023-04-15T11:31:08;11.40;99.90
5621;DHT22;2832;50.864;12.186;2023-04-15T11:33:45;11.40;99.90
5621;DHT22;2832;50.864;12.186;2023-04-15T11:36:13;11.30;99.90
5621;DHT22;2832;50.864;12.186;2023-04-15T11:38:46;11.40;99.90
5621;DHT22;2832;50.864;12.186;2023-04-15T11:41:14;11.40;99.90
5621;DHT22;2832;50.864;12.186;2023-04-15T11:43:42;11.40;99.90
5621;DHT22;2832;50.864;12.186;2023-04-15T11:46:11;11.50;99.90
5621;DHT22;2832;50.864;12.186;2023-04-15T11:48:43;11.40;99.90
5621;DHT22;2832;50.864;12.186;2023-04-15T11:51:16;11.40;99.90
5621;DHT22;2832;50.864;12.186;2023-04-15T11:53:50;11.40;99.90
5621;DHT22;2832;50.864;12.186;2023-04-15T11:56:19;11.40;99.90
5621;DHT22;2832;50.864;12.186;2023-04-15T11:58:50;11.40;99.90
5621;DHT22;2832;50.864;12.186;2023-04-15T12:01:19;11.40;99.90
5621;DHT22;2832;50.864;12.186;2023-04-15T12:04:11;11.40;99.90
5621;DHT22;2832;50.864;12.186;2023-04-15T12:06:40;11.40;99.90
5621;DHT22;2832;50.864;12.186;2023-04-15T12:09:15;11.40;99.90
5621;DHT22;2832;50.864;12.186;2023-04-15T12:11:51;11.50;99.90
5621;DHT22;2832;50.864;12.186;2023-04-15T12:14:24;11.50;99.90
5621;DHT22;2832;50.864;12.186;2023-04-15T12:16:53;11.50;99.90
5621;DHT22;2832;50.864;12.186;2023-04-15T12:19:25;11.50;99.90
5621;DHT22;2832;50.864;12.186;2023-04-15T12:21:57;11.50;99.90
5621;DHT22;2832;50.864;12.186;2023-04-15T12:24:29;11.50;99.90
5621;DHT22;2832;50.864;12.186;2023-04-15T12:27:02;11.50;99.90
5621;DHT22;2832;50.864;12.186;2023-04-15T12:29:30;11.50;99.90
5621;DHT22;2832;50.864;12.186;2023-04-15T12:32:04;11.50;99.90
5621;DHT22;2832;50.864;12.186;2023-04-15T12:34:35;11.50;99.90
5621;DHT22;2832;50.864;12.186;2023-04-15T12:37:05;11.40;99.90
5621;DHT22;2832;50.864;12.186;2023-04-15T12:39:37;11.50;99.90
5621;DHT22;2832;50.864;12.186;2023-04-15T12:42:06;11.50;99.90
5621;DHT22;2832;50.864;12.186;2023-04-15T12:44:35;11.50;99.90
5621;DHT22;2832;50.864;12.186;2023-04-15T12:47:03;11.50;99.90
5621;DHT22;2832;50.864;12.186;2023-04-15T12:49:35;11.50;99.90
5621;DHT22;2832;50.864;12.186;2023-04-15T12:52:07;11.50;99.90
5621;DHT22;2832;50.864;12.186;2023-04-15T12:54:37;11.50;99.90
5621;DHT22;2832;50.864;12.186;2023-04-15T12:57:06;11.50;99.90
5621;DHT22;2832;50.864;12.186;2023-04-15T12:59:35;11.40;99.90
5621;DHT22;2832;50.864;12.186;2023-04-15T13:02:03;11.50;99.90
5621;DHT22;2832;50.864;12.186;2023-04-15T13:04:31;11.40;99.90
5621;DHT22;2832;50.864;12.186;2023-04-15T13:07:00;11.50;99.90
5621;DHT22;2832;50.864;12.186;2023-04-15T13:09:28;11.50;99.90
5621;DHT22;2832;50.864;12.186;2023-04-15T13:12:00;11.40;99.90
5621;DHT22;2832;50.864;12.186;2023-04-15T13:14:29;11.40;99.90
5621;DHT22;2832;50.864;12.186;2023-04-15T13:16:58;11.40;99.90
5621;DHT22;2832;50.864;12.186;2023-04-15T13:19:26;11.40;99.90
5621;DHT22;2832;50.864;12.186;2023-04-15T13:21:54;11.40;99.90
5621;DHT22;2832;50.864;12.186;2023-04-15T13:24:23;11.40;99.90
5621;DHT22;2832;50.864;12.186;2023-04-15T13:26:51;11.50;99.90
5621;DHT22;2832;50.864;12.186;2023-04-15T13:29:20;11.40;99.90
5621;DHT22;2832;50.864;12.186;2023-04-15T13:31:49;11.40;99.90
5621;DHT22;2832;50.864;12.186;2023-04-15T13:34:17;11.40;99.90
5621;DHT22;2832;50.864;12.186;2023-04-15T14:04:37;11.50;99.90
5621;DHT22;2832;50.864;12.186;2023-04-15T14:07:05;11.50;99.90
5621;DHT22;2832;50.864;12.186;2023-04-15T14:09:35;11.50;99.90
5621;DHT22;2832;50.864;12.186;2023-04-15T14:12:06;11.50;99.90
5621;DHT22;2832;50.864;12.186;2023-04-15T14:14:37;11.50;99.90
5621;DHT22;2832;50.864;12.186;2023-04-15T14:17:06;11.40;99.90
5621;DHT22;2832;50.864;12.186;2023-04-15T14:19:37;11.50;99.90
5621;DHT22;2832;50.864;12.186;2023-04-15T14:22:05;11.50;99.90
5621;DHT22;2832;50.864;12.186;2023-04-15T14:24:33;11.50;99.90
5621;DHT22;2832;50.864;12.186;2023-04-15T14:27:01;11.50;99.90
5621;DHT22;2832;50.864;12.186;2023-04-15T14:29:33;11.50;99.90
5621;DHT22;2832;50.864;12.186;2023-04-15T14:32:06;11.50;99.90
5621;DHT22;2832;50.864;12.186;2023-04-15T14:34:37;11.50;99.90
5621;DHT22;2832;50.864;12.186;2023-04-15T16:38:08;11.50;99.90
5621;DHT22;2832;50.864;12.186;2023-04-15T16:40:37;11.50;99.90
5621;DHT22;2832;50.864;12.186;2023-04-15T16:43:06;11.50;99.90
5621;DHT22;2832;50.864;12.186;2023-04-15T16:45:40;11.50;99.90
5621;DHT22;2832;50.864;12.186;2023-04-15T16:48:09;11.50;99.90
5621;DHT22;2832;50.864;12.186;2023-04-15T16:50:38;11.60;99.90
5621;DHT22;2832;50.864;12.186;2023-04-15T16:53:07;11.50;99.90
5621;DHT22;2832;50.864;12.186;2023-04-15T16:55:35;11.60;99.90
5621;DHT22;2832;50.864;12.186;2023-04-15T16:58:03;11.60;99.90
5621;DHT22;2832;50.864;12.186;2023-04-15T17:00:32;11.60;99.90
5621;DHT22;2832;50.864;12.186;2023-04-15T17:03:02;11.60;99.90
5621;DHT22;2832;50.864;12.186;2023-04-15T17:05:46;11.60;99.90
5621;DHT22;2832;50.864;12.186;2023-04-15T17:08:16;11.70;99.90
5621;DHT22;2832;50.864;12.186;2023-04-15T17:10:45;11.70;99.90
5621;DHT22;2832;50.864;12.186;2023-04-15T17:13:14;11.60;99.90
5621;DHT22;2832;50.864;12.186;2023-04-15T17:15:42;11.50;99.90
5621;DHT22;2832;50.864;12.186;2023-04-15T17:18:16;11.60;99.90
5621;DHT22;2832;50.864;12.186;2023-04-15T17:20:44;11.60;99.90
5621;DHT22;2832;50.864;12.186;2023-04-15T17:23:12;11.70;99.90
5621;DHT22;2832;50.864;12.186;2023-04-15T17:25:42;11.60;99.90
5621;DHT22;2832;50.864;12.186;2023-04-15T17:28:11;11.60;99.90
5621;DHT22;2832;50.864;12.186;2023-04-15T17:30:39;11.60;99.90
5621;DHT22;2832;50.864;12.186;2023-04-15T17:33:07;11.60;99.90
5621;DHT22;2832;50.864;12.186;2023-04-15T17:35:36;11.70;99.90
5621;DHT22;2832;50.864;12.186;2023-04-15T17:38:04;11.70;99.90
5621;DHT22;2832;50.864;12.186;2023-04-15T17:40:36;11.60;99.90
5621;DHT22;2832;50.864;12.186;2023-04-15T17:43:08;11.50;99.90
5621;DHT22;2832;50.864;12.186;2023-04-15T17:45:35;11.50;99.90
5621;DHT22;2832;50.864;12.186;2023-04-15T17:48:03;11.60;99.90
5621;DHT22;2832;50.864;12.186;2023-04-15T17:50:32;11.50;99.90
5621;DHT22;2832;50.864;12.186;2023-04-15T17:53:09;11.60;99.90
5621;DHT22;2832;50.864;12.186;2023-04-15T17:55:37;11.60;99.90
5621;DHT22;2832;50.864;12.186;2023-04-15T17:58:07;11.60;99.90
5621;DHT22;2832;50.864;12.186;2023-04-15T18:00:35;11.60;99.90
5621;DHT22;2832;50.864;12.186;2023-04-15T18:03:04;11.60;99.90
5621;DHT22;2832;50.864;12.186;2023-04-15T18:05:35;11.60;99.90
5621;DHT22;2832;50.864;12.186;2023-04-15T18:08:05;11.60;99.90
5621;DHT22;2832;50.864;12.186;2023-04-15T18:10:33;11.60;99.90
5621;DHT22;2832;50.864;12.186;2023-04-15T18:13:03;11.60;99.90
5621;DHT22;2832;50.864;12.186;2023-04-15T18:15:33;11.60;99.90
5621;DHT22;2832;50.864;12.186;2023-04-15T18:18:05;11.70;99.90
5621;DHT22;2832;50.864;12.186;2023-04-15T18:20:33;11.60;99.90
5621;DHT22;2832;50.864;12.186;2023-04-15T18:23:01;11.60;99.90
5621;DHT22;2832;50.864;12.186;2023-04-15T18:25:29;11.60;99.90
5621;DHT22;2832;50.864;12.186;2023-04-15T18:28:03;11.60;99.90
5621;DHT22;2832;50.864;12.186;2023-04-15T18:30:35;11.50;99.90
5621;DHT22;2832;50.864;12.186;2023-04-15T18:33:07;11.60;99.90
5621;DHT22;2832;50.864;12.186;2023-04-15T18:35:36;11.60;99.90
5621;DHT22;2832;50.864;12.186;2023-04-15T22:41:18;11.80;99.90
5621;DHT22;2832;50.864;12.186;2023-04-15T22:43:45;11.80;99.90
5621;DHT22;2832;50.864;12.186;2023-04-15T22:46:13;11.80;99.90
5621;DHT22;2832;50.864;12.186;2023-04-15T22:48:42;11.80;99.90
5621;DHT22;2832;50.864;12.186;2023-04-15T22:51:12;11.80;99.90
5621;DHT22;2832;50.864;12.186;2023-04-15T22:53:40;11.80;99.90
5621;DHT22;2832;50.864;12.186;2023-04-15T22:56:09;11.90;99.90
5621;DHT22;2832;50.864;12.186;2023-04-15T22:58:39;11.80;99.90
5621;DHT22;2832;50.864;12.186;2023-04-15T23:01:11;11.80;99.90
5621;DHT22;2832;50.864;12.186;2023-04-15T23:03:44;11.80;99.90
5621;DHT22;2832;50.864;12.186;2023-04-15T23:06:12;11.80;99.90
5621;DHT22;2832;50.864;12.186;2023-04-15T23:08:40;11.80;99.90
5621;DHT22;2832;50.864;12.186;2023-04-15T23:11:11;11.70;99.90
5621;DHT22;2832;50.864;12.186;2023-04-15T23:13:41;11.80;99.90
5621;DHT22;2832;50.864;12.186;2023-04-15T23:16:13;11.80;99.90
5621;DHT22;2832;50.864;12.186;2023-04-15T23:18:41;11.80;99.90
5621;DHT22;2832;50.864;12.186;2023-04-15T23:21:11;11.80;99.90
5621;DHT22;2832;50.864;12.186;2023-04-15T23:23:39;11.80;99.90
5621;DHT22;2832;50.864;12.186;2023-04-15T23:26:07;11.80;99.90
5621;DHT22;2832;50.864;12.186;2023-04-15T23:28:35;11.80;99.90
5621;DHT22;2832;50.864;12.186;2023-04-15T23:31:04;11.90;99.90
5621;DHT22;2832;50.864;12.186;2023-04-15T23:33:34;11.80;99.90
5621;DHT22;2832;50.864;12.186;2023-04-15T23:36:05;11.90;99.90
5621;DHT22;2832;50.864;12.186;2023-04-15T23:38:36;11.90;99.90
